Western Oslo — LAJH7 — position and weather

sailwx.info

Track history (hours):
 
Tides and Currents Weather Stations Pressure Air Temp Water Temp Dewpoint Dewpoint Depression Visibility Wind Speed Wind Dir Waves Ship Positions

Western Oslo

Last reported at 2017-Sep-14 11:53 UTC. Time now 2017-Sep-25 06:19 UTC.
Position N 03°58' W 002°04'.
Warning: this ship's position is 10 days out of date.

Length 190 m; draft 7.1 m.

Type: Cargo ship. MMSI: 257460000.

Date/timePositionNaut miles runAvg speedWind from/ knotsBaromVisibWave heightAir tempDewpointWater temp
2017-Sep-14 11:53N 03°58' W 002°04'715.2
2017-Sep-14 11:26N 03°57' W 002°11'1115.1
2017-Sep-14 10:44N 03°55' W 002°21'415.2
2017-Sep-14 10:30N 03°54' W 002°25'815.3
2017-Sep-14 09:59N 03°52' W 002°32'1015.5
2017-Sep-14 09:21N 03°50' W 002°42'615.7
2017-Sep-14 09:00N 03°48' W 002°48'915.8
2017-Sep-14 08:26N 03°47' W 002°56'915.6
2017-Sep-14 07:51N 03°48' W 003°05'615.6
2017-Sep-14 07:30N 03°49' W 003°11'4715.8
2017-Sep-14 04:31N 04°01' W 003°56'315.9
2017-Sep-14 04:18N 04°02' W 003°60'  
Track history (hours):
 
Tides and Currents Weather Stations Pressure Air Temp Water Temp Dewpoint Dewpoint Depression Visibility Wind Speed Wind Dir Waves Ship Positions

Western Oslo

Last reported at 2017-Sep-14 11:53 UTC. Time now 2017-Sep-25 06:19 UTC.
Position N 03°58' W 002°04'.
Warning: this ship's position is 10 days out of date.

Length 190 m; draft 7.1 m.

Type: Cargo ship. MMSI: 257460000.

Date/timePositionNaut miles runAvg speedWind from/ knotsBaromVisibWave heightAir tempDewpointWater temp
2017-Sep-14 11:53N 03°58' W 002°04'715.2
2017-Sep-14 11:26N 03°57' W 002°11'1115.1
2017-Sep-14 10:44N 03°55' W 002°21'415.2
2017-Sep-14 10:30N 03°54' W 002°25'815.3
2017-Sep-14 09:59N 03°52' W 002°32'1015.5
2017-Sep-14 09:21N 03°50' W 002°42'615.7
2017-Sep-14 09:00N 03°48' W 002°48'915.8
2017-Sep-14 08:26N 03°47' W 002°56'915.6
2017-Sep-14 07:51N 03°48' W 003°05'615.6
2017-Sep-14 07:30N 03°49' W 003°11'4715.8
2017-Sep-14 04:31N 04°01' W 003°56'315.9
2017-Sep-14 04:18N 04°02' W 003°60'  

Dump ship's entire track history